sensor_id;sensor_type;location;lat;lon;timestamp;P1;durP1;ratioP1;P2;durP2;ratioP2
64682;SDS011;51107;47.652;19.016;2024-01-11T00:01:35;8.43;;;4.35;;
64682;SDS011;51107;47.652;19.016;2024-01-11T00:04:03;16.58;;;7.35;;
64682;SDS011;51107;47.652;19.016;2024-01-11T00:06:31;6.55;;;3.85;;
64682;SDS011;51107;47.652;19.016;2024-01-11T00:08:59;7.37;;;4.25;;
64682;SDS011;51107;47.652;19.016;2024-01-11T00:11:27;5.12;;;3.60;;
64682;SDS011;51107;47.652;19.016;2024-01-11T00:13:55;4.85;;;3.15;;
64682;SDS011;51107;47.652;19.016;2024-01-11T00:16:23;9.95;;;3.22;;
64682;SDS011;51107;47.652;19.016;2024-01-11T00:18:52;2.72;;;1.87;;
64682;SDS011;51107;47.652;19.016;2024-01-11T00:21:20;5.60;;;2.85;;
64682;SDS011;51107;47.652;19.016;2024-01-11T00:23:48;3.08;;;2.53;;
64682;SDS011;51107;47.652;19.016;2024-01-11T00:26:17;6.75;;;2.72;;
64682;SDS011;51107;47.652;19.016;2024-01-11T00:28:45;6.75;;;3.17;;
64682;SDS011;51107;47.652;19.016;2024-01-11T00:31:13;3.80;;;2.33;;
64682;SDS011;51107;47.652;19.016;2024-01-11T00:33:41;3.12;;;2.25;;
64682;SDS011;51107;47.652;19.016;2024-01-11T00:36:09;3.62;;;2.90;;
64682;SDS011;51107;47.652;19.016;2024-01-11T00:38:37;3.42;;;2.62;;
64682;SDS011;51107;47.652;19.016;2024-01-11T00:41:06;8.40;;;3.20;;
64682;SDS011;51107;47.652;19.016;2024-01-11T00:43:35;6.47;;;3.72;;
64682;SDS011;51107;47.652;19.016;2024-01-11T00:46:03;5.12;;;3.90;;
64682;SDS011;51107;47.652;19.016;2024-01-11T00:48:31;10.95;;;5.62;;
64682;SDS011;51107;47.652;19.016;2024-01-11T00:51:00;9.77;;;4.65;;
64682;SDS011;51107;47.652;19.016;2024-01-11T00:53:28;8.13;;;4.90;;
64682;SDS011;51107;47.652;19.016;2024-01-11T00:55:59;8.80;;;4.22;;
64682;SDS011;51107;47.652;19.016;2024-01-11T00:58:28;5.40;;;3.67;;
64682;SDS011;51107;47.652;19.016;2024-01-11T01:00:56;8.20;;;4.43;;
64682;SDS011;51107;47.652;19.016;2024-01-11T01:03:24;16.67;;;5.57;;
64682;SDS011;51107;47.652;19.016;2024-01-11T01:05:52;3.75;;;2.85;;
64682;SDS011;51107;47.652;19.016;2024-01-11T01:08:21;7.95;;;4.18;;
64682;SDS011;51107;47.652;19.016;2024-01-11T01:10:49;12.85;;;3.83;;
64682;SDS011;51107;47.652;19.016;2024-01-11T01:13:17;4.32;;;3.33;;
64682;SDS011;51107;47.652;19.016;2024-01-11T01:15:45;7.78;;;3.62;;
64682;SDS011;51107;47.652;19.016;2024-01-11T01:18:14;3.42;;;2.58;;
64682;SDS011;51107;47.652;19.016;2024-01-11T01:20:42;4.20;;;2.50;;
64682;SDS011;51107;47.652;19.016;2024-01-11T01:23:11;11.05;;;5.40;;
64682;SDS011;51107;47.652;19.016;2024-01-11T01:25:39;13.40;;;7.10;;
64682;SDS011;51107;47.652;19.016;2024-01-11T01:28:07;20.83;;;6.15;;
64682;SDS011;51107;47.652;19.016;2024-01-11T01:30:36;15.85;;;7.10;;
64682;SDS011;51107;47.652;19.016;2024-01-11T01:33:04;12.65;;;4.65;;
64682;SDS011;51107;47.652;19.016;2024-01-11T01:35:32;26.20;;;8.73;;
64682;SDS011;51107;47.652;19.016;2024-01-11T01:38:02;8.68;;;5.43;;
64682;SDS011;51107;47.652;19.016;2024-01-11T01:40:30;27.42;;;10.27;;
64682;SDS011;51107;47.652;19.016;2024-01-11T01:42:59;18.60;;;7.60;;
64682;SDS011;51107;47.652;19.016;2024-01-11T01:45:27;15.38;;;7.15;;
64682;SDS011;51107;47.652;19.016;2024-01-11T01:47:56;12.05;;;6.20;;
64682;SDS011;51107;47.652;19.016;2024-01-11T01:50:24;9.27;;;4.87;;
64682;SDS011;51107;47.652;19.016;2024-01-11T01:52:53;7.85;;;5.18;;
64682;SDS011;51107;47.652;19.016;2024-01-11T01:55:24;13.18;;;3.92;;
64682;SDS011;51107;47.652;19.016;2024-01-11T01:57:53;5.70;;;3.80;;
64682;SDS011;51107;47.652;19.016;2024-01-11T02:00:22;8.88;;;3.97;;
64682;SDS011;51107;47.652;19.016;2024-01-11T02:02:51;8.20;;;4.18;;
64682;SDS011;51107;47.652;19.016;2024-01-11T02:05:21;8.55;;;5.47;;
64682;SDS011;51107;47.652;19.016;2024-01-11T02:07:49;9.27;;;4.75;;
64682;SDS011;51107;47.652;19.016;2024-01-11T02:10:17;10.38;;;6.43;;
64682;SDS011;51107;47.652;19.016;2024-01-11T02:12:46;6.95;;;4.47;;
64682;SDS011;51107;47.652;19.016;2024-01-11T02:15:14;8.13;;;3.85;;
64682;SDS011;51107;47.652;19.016;2024-01-11T02:17:42;6.60;;;4.28;;
64682;SDS011;51107;47.652;19.016;2024-01-11T02:20:10;7.80;;;3.90;;
64682;SDS011;51107;47.652;19.016;2024-01-11T02:22:40;8.98;;;4.47;;
64682;SDS011;51107;47.652;19.016;2024-01-11T02:25:10;6.05;;;3.87;;
64682;SDS011;51107;47.652;19.016;2024-01-11T02:27:45;2.72;;;2.45;;
64682;SDS011;51107;47.652;19.016;2024-01-11T02:30:17;6.22;;;3.08;;
64682;SDS011;51107;47.652;19.016;2024-01-11T02:32:45;5.15;;;3.67;;
64682;SDS011;51107;47.652;19.016;2024-01-11T02:35:16;4.70;;;2.30;;
64682;SDS011;51107;47.652;19.016;2024-01-11T02:37:45;5.55;;;3.62;;
64682;SDS011;51107;47.652;19.016;2024-01-11T02:40:14;9.40;;;4.82;;
64682;SDS011;51107;47.652;19.016;2024-01-11T02:42:42;11.60;;;5.40;;
64682;SDS011;51107;47.652;19.016;2024-01-11T02:45:11;14.50;;;6.70;;
64682;SDS011;51107;47.652;19.016;2024-01-11T02:47:42;7.97;;;4.87;;
64682;SDS011;51107;47.652;19.016;2024-01-11T02:50:10;11.32;;;5.57;;
64682;SDS011;51107;47.652;19.016;2024-01-11T02:52:41;15.50;;;7.15;;
64682;SDS011;51107;47.652;19.016;2024-01-11T02:55:09;8.75;;;4.72;;
64682;SDS011;51107;47.652;19.016;2024-01-11T02:57:38;20.05;;;5.40;;
64682;SDS011;51107;47.652;19.016;2024-01-11T03:00:06;9.35;;;4.45;;
64682;SDS011;51107;47.652;19.016;2024-01-11T03:02:34;12.90;;;6.30;;
64682;SDS011;51107;47.652;19.016;2024-01-11T03:05:05;12.02;;;6.70;;
64682;SDS011;51107;47.652;19.016;2024-01-11T03:07:33;9.10;;;5.53;;
64682;SDS011;51107;47.652;19.016;2024-01-11T03:10:01;13.00;;;7.20;;
64682;SDS011;51107;47.652;19.016;2024-01-11T03:12:30;13.48;;;9.73;;
64682;SDS011;51107;47.652;19.016;2024-01-11T03:14:58;21.33;;;8.93;;
64682;SDS011;51107;47.652;19.016;2024-01-11T03:17:26;17.27;;;9.60;;
64682;SDS011;51107;47.652;19.016;2024-01-11T03:19:54;7.43;;;4.82;;
64682;SDS011;51107;47.652;19.016;2024-01-11T03:22:22;6.97;;;4.03;;
64682;SDS011;51107;47.652;19.016;2024-01-11T03:24:50;12.02;;;5.47;;
64682;SDS011;51107;47.652;19.016;2024-01-11T03:27:18;9.98;;;5.85;;
64682;SDS011;51107;47.652;19.016;2024-01-11T03:29:46;11.70;;;5.80;;
64682;SDS011;51107;47.652;19.016;2024-01-11T03:32:14;10.52;;;6.60;;
64682;SDS011;51107;47.652;19.016;2024-01-11T03:34:43;8.35;;;5.43;;
64682;SDS011;51107;47.652;19.016;2024-01-11T03:37:11;14.87;;;5.60;;
64682;SDS011;51107;47.652;19.016;2024-01-11T03:39:39;12.02;;;7.10;;
64682;SDS011;51107;47.652;19.016;2024-01-11T03:42:07;16.77;;;6.97;;
64682;SDS011;51107;47.652;19.016;2024-01-11T03:44:36;13.18;;;5.78;;
64682;SDS011;51107;47.652;19.016;2024-01-11T03:47:05;5.18;;;3.80;;
64682;SDS011;51107;47.652;19.016;2024-01-11T03:49:35;9.98;;;5.53;;
64682;SDS011;51107;47.652;19.016;2024-01-11T03:52:03;13.18;;;6.72;;
64682;SDS011;51107;47.652;19.016;2024-01-11T03:54:31;11.23;;;5.53;;
64682;SDS011;51107;47.652;19.016;2024-01-11T03:56:59;4.90;;;4.12;;
64682;SDS011;51107;47.652;19.016;2024-01-11T03:59:27;10.90;;;5.47;;
64682;SDS011;51107;47.652;19.016;2024-01-11T04:01:57;11.15;;;5.37;;
64682;SDS011;51107;47.652;19.016;2024-01-11T04:04:25;8.43;;;5.20;;
64682;SDS011;51107;47.652;19.016;2024-01-11T04:06:53;12.32;;;7.35;;
64682;SDS011;51107;47.652;19.016;2024-01-11T04:09:21;12.82;;;6.65;;
64682;SDS011;51107;47.652;19.016;2024-01-11T04:11:50;19.00;;;7.18;;
64682;SDS011;51107;47.652;19.016;2024-01-11T04:14:18;10.88;;;5.78;;
64682;SDS011;51107;47.652;19.016;2024-01-11T04:16:46;13.70;;;5.40;;
64682;SDS011;51107;47.652;19.016;2024-01-11T04:19:14;9.88;;;5.70;;
64682;SDS011;51107;47.652;19.016;2024-01-11T04:21:46;10.65;;;4.45;;
64682;SDS011;51107;47.652;19.016;2024-01-11T04:24:14;7.95;;;5.80;;
64682;SDS011;51107;47.652;19.016;2024-01-11T04:26:42;11.95;;;4.35;;
64682;SDS011;51107;47.652;19.016;2024-01-11T04:29:10;10.55;;;5.03;;
64682;SDS011;51107;47.652;19.016;2024-01-11T04:31:38;8.15;;;5.40;;
64682;SDS011;51107;47.652;19.016;2024-01-11T04:34:06;19.10;;;5.28;;
64682;SDS011;51107;47.652;19.016;2024-01-11T04:36:37;5.37;;;3.80;;
64682;SDS011;51107;47.652;19.016;2024-01-11T04:39:06;10.38;;;5.80;;
64682;SDS011;51107;47.652;19.016;2024-01-11T04:41:35;6.80;;;4.30;;
64682;SDS011;51107;47.652;19.016;2024-01-11T04:44:04;7.90;;;4.37;;
64682;SDS011;51107;47.652;19.016;2024-01-11T04:46:32;8.13;;;4.87;;
64682;SDS011;51107;47.652;19.016;2024-01-11T04:49:01;7.85;;;5.20;;
64682;SDS011;51107;47.652;19.016;2024-01-11T04:51:29;4.62;;;3.95;;
64682;SDS011;51107;47.652;19.016;2024-01-11T04:53:57;13.65;;;7.37;;
64682;SDS011;51107;47.652;19.016;2024-01-11T04:56:25;7.93;;;5.80;;
64682;SDS011;51107;47.652;19.016;2024-01-11T04:58:53;13.73;;;7.95;;
64682;SDS011;51107;47.652;19.016;2024-01-11T05:01:21;13.25;;;6.93;;
64682;SDS011;51107;47.652;19.016;2024-01-11T05:03:50;10.82;;;5.97;;
64682;SDS011;51107;47.652;19.016;2024-01-11T05:06:18;20.98;;;8.65;;
64682;SDS011;51107;47.652;19.016;2024-01-11T05:08:51;11.18;;;6.65;;
64682;SDS011;51107;47.652;19.016;2024-01-11T05:11:23;8.77;;;5.57;;
64682;SDS011;51107;47.652;19.016;2024-01-11T05:13:53;8.55;;;5.72;;
64682;SDS011;51107;47.652;19.016;2024-01-11T05:16:22;18.15;;;8.05;;
64682;SDS011;51107;47.652;19.016;2024-01-11T05:18:51;9.15;;;5.87;;
64682;SDS011;51107;47.652;19.016;2024-01-11T05:21:21;7.53;;;5.70;;
64682;SDS011;51107;47.652;19.016;2024-01-11T05:23:49;13.35;;;6.60;;
64682;SDS011;51107;47.652;19.016;2024-01-11T05:26:19;17.95;;;7.35;;
64682;SDS011;51107;47.652;19.016;2024-01-11T05:28:47;6.75;;;4.80;;
64682;SDS011;51107;47.652;19.016;2024-01-11T05:31:16;15.05;;;9.00;;
64682;SDS011;51107;47.652;19.016;2024-01-11T05:33:45;16.15;;;9.00;;
64682;SDS011;51107;47.652;19.016;2024-01-11T05:36:15;24.48;;;12.68;;
64682;SDS011;51107;47.652;19.016;2024-01-11T05:38:44;21.50;;;11.27;;
64682;SDS011;51107;47.652;19.016;2024-01-11T05:41:13;12.95;;;8.90;;
64682;SDS011;51107;47.652;19.016;2024-01-11T05:43:41;24.30;;;11.68;;
64682;SDS011;51107;47.652;19.016;2024-01-11T05:46:11;27.65;;;12.43;;
64682;SDS011;51107;47.652;19.016;2024-01-11T05:48:39;21.87;;;10.20;;
64682;SDS011;51107;47.652;19.016;2024-01-11T05:51:08;17.95;;;7.35;;
64682;SDS011;51107;47.652;19.016;2024-01-11T05:53:37;16.12;;;8.52;;
64682;SDS011;51107;47.652;19.016;2024-01-11T05:56:08;10.30;;;6.53;;
64682;SDS011;51107;47.652;19.016;2024-01-11T05:58:38;14.63;;;7.90;;
64682;SDS011;51107;47.652;19.016;2024-01-11T06:01:07;10.60;;;6.32;;
64682;SDS011;51107;47.652;19.016;2024-01-11T06:03:37;11.82;;;7.82;;
64682;SDS011;51107;47.652;19.016;2024-01-11T06:06:07;7.28;;;4.95;;
64682;SDS011;51107;47.652;19.016;2024-01-11T06:08:37;12.68;;;7.55;;
64682;SDS011;51107;47.652;19.016;2024-01-11T06:11:05;12.52;;;6.55;;
64682;SDS011;51107;47.652;19.016;2024-01-11T06:13:35;7.40;;;4.45;;
64682;SDS011;51107;47.652;19.016;2024-01-11T06:16:04;10.13;;;5.68;;
64682;SDS011;51107;47.652;19.016;2024-01-11T06:18:32;7.72;;;4.12;;
64682;SDS011;51107;47.652;19.016;2024-01-11T06:21:01;7.80;;;3.83;;
64682;SDS011;51107;47.652;19.016;2024-01-11T06:23:29;8.50;;;4.97;;
64682;SDS011;51107;47.652;19.016;2024-01-11T06:25:57;6.70;;;3.80;;
64682;SDS011;51107;47.652;19.016;2024-01-11T06:28:25;7.60;;;3.25;;
64682;SDS011;51107;47.652;19.016;2024-01-11T06:30:54;16.40;;;5.50;;
64682;SDS011;51107;47.652;19.016;2024-01-11T06:33:22;8.88;;;5.18;;
64682;SDS011;51107;47.652;19.016;2024-01-11T06:35:50;10.52;;;5.15;;
64682;SDS011;51107;47.652;19.016;2024-01-11T06:38:19;16.87;;;9.10;;
64682;SDS011;51107;47.652;19.016;2024-01-11T06:40:48;20.17;;;11.63;;
64682;SDS011;51107;47.652;19.016;2024-01-11T06:43:16;20.42;;;10.60;;
64682;SDS011;51107;47.652;19.016;2024-01-11T06:45:44;34.05;;;12.70;;
64682;SDS011;51107;47.652;19.016;2024-01-11T06:48:12;38.38;;;13.98;;
64682;SDS011;51107;47.652;19.016;2024-01-11T06:50:41;27.70;;;13.32;;
64682;SDS011;51107;47.652;19.016;2024-01-11T06:53:09;20.15;;;11.98;;
64682;SDS011;51107;47.652;19.016;2024-01-11T06:55:37;21.20;;;12.70;;
64682;SDS011;51107;47.652;19.016;2024-01-11T06:58:06;15.38;;;10.90;;
64682;SDS011;51107;47.652;19.016;2024-01-11T07:00:34;22.75;;;9.73;;
64682;SDS011;51107;47.652;19.016;2024-01-11T07:03:03;20.88;;;10.20;;
64682;SDS011;51107;47.652;19.016;2024-01-11T07:05:31;14.50;;;9.07;;
64682;SDS011;51107;47.652;19.016;2024-01-11T07:08:00;25.02;;;7.75;;
64682;SDS011;51107;47.652;19.016;2024-01-11T07:10:28;20.62;;;10.77;;
64682;SDS011;51107;47.652;19.016;2024-01-11T07:12:56;15.68;;;9.90;;
64682;SDS011;51107;47.652;19.016;2024-01-11T07:15:24;16.87;;;9.65;;
64682;SDS011;51107;47.652;19.016;2024-01-11T07:17:52;29.35;;;12.35;;
64682;SDS011;51107;47.652;19.016;2024-01-11T07:20:21;19.25;;;10.68;;
64682;SDS011;51107;47.652;19.016;2024-01-11T07:22:49;13.57;;;8.55;;
64682;SDS011;51107;47.652;19.016;2024-01-11T07:25:17;25.42;;;10.73;;
64682;SDS011;51107;47.652;19.016;2024-01-11T07:27:45;20.25;;;10.70;;
64682;SDS011;51107;47.652;19.016;2024-01-11T07:30:14;16.55;;;8.25;;
64682;SDS011;51107;47.652;19.016;2024-01-11T07:32:42;12.25;;;7.60;;
64682;SDS011;51107;47.652;19.016;2024-01-11T07:35:10;21.37;;;10.45;;
64682;SDS011;51107;47.652;19.016;2024-01-11T07:37:45;21.58;;;10.48;;
64682;SDS011;51107;47.652;19.016;2024-01-11T07:43:55;31.75;;;15.15;;
64682;SDS011;51107;47.652;19.016;2024-01-11T07:46:51;22.27;;;12.05;;
64682;SDS011;51107;47.652;19.016;2024-01-11T07:51:50;22.27;;;7.35;;
64682;SDS011;51107;47.652;19.016;2024-01-11T07:54:18;18.95;;;11.25;;
64682;SDS011;51107;47.652;19.016;2024-01-11T07:56:46;18.98;;;9.05;;
64682;SDS011;51107;47.652;19.016;2024-01-11T07:59:15;26.35;;;13.70;;
64682;SDS011;51107;47.652;19.016;2024-01-11T08:01:43;17.42;;;8.23;;
64682;SDS011;51107;47.652;19.016;2024-01-11T08:04:12;16.05;;;9.20;;
64682;SDS011;51107;47.652;19.016;2024-01-11T08:06:40;23.87;;;12.18;;
64682;SDS011;51107;47.652;19.016;2024-01-11T08:09:08;26.50;;;11.77;;
64682;SDS011;51107;47.652;19.016;2024-01-11T08:11:38;18.42;;;10.45;;
64682;SDS011;51107;47.652;19.016;2024-01-11T08:14:15;14.20;;;6.72;;
64682;SDS011;51107;47.652;19.016;2024-01-11T08:16:43;11.80;;;6.18;;
64682;SDS011;51107;47.652;19.016;2024-01-11T08:19:12;5.12;;;3.33;;
64682;SDS011;51107;47.652;19.016;2024-01-11T08:21:43;8.60;;;4.28;;
64682;SDS011;51107;47.652;19.016;2024-01-11T08:24:11;8.32;;;5.12;;
64682;SDS011;51107;47.652;19.016;2024-01-11T08:26:39;12.85;;;3.50;;
64682;SDS011;51107;47.652;19.016;2024-01-11T08:29:07;9.23;;;3.60;;
64682;SDS011;51107;47.652;19.016;2024-01-11T08:31:37;5.90;;;3.17;;
64682;SDS011;51107;47.652;19.016;2024-01-11T08:34:07;7.35;;;4.53;;
64682;SDS011;51107;47.652;19.016;2024-01-11T08:36:35;7.32;;;3.87;;
64682;SDS011;51107;47.652;19.016;2024-01-11T08:39:06;8.85;;;4.72;;
64682;SDS011;51107;47.652;19.016;2024-01-11T08:41:35;15.25;;;7.03;;
64682;SDS011;51107;47.652;19.016;2024-01-11T08:44:05;21.23;;;9.30;;
64682;SDS011;51107;47.652;19.016;2024-01-11T08:46:33;15.88;;;8.25;;
64682;SDS011;51107;47.652;19.016;2024-01-11T08:49:02;22.87;;;10.25;;
64682;SDS011;51107;47.652;19.016;2024-01-11T08:51:33;20.02;;;8.77;;
64682;SDS011;51107;47.652;19.016;2024-01-11T08:54:03;17.02;;;10.32;;
64682;SDS011;51107;47.652;19.016;2024-01-11T08:56:32;16.37;;;7.43;;
64682;SDS011;51107;47.652;19.016;2024-01-11T08:59:05;25.75;;;8.05;;
64682;SDS011;51107;47.652;19.016;2024-01-11T09:01:37;20.88;;;8.52;;
64682;SDS011;51107;47.652;19.016;2024-01-11T09:04:05;28.48;;;9.48;;
64682;SDS011;51107;47.652;19.016;2024-01-11T09:06:33;13.40;;;7.53;;
64682;SDS011;51107;47.652;19.016;2024-01-11T09:09:02;25.15;;;10.55;;
64682;SDS011;51107;47.652;19.016;2024-01-11T09:11:30;20.90;;;8.95;;
64682;SDS011;51107;47.652;19.016;2024-01-11T09:13:59;22.70;;;8.95;;
64682;SDS011;51107;47.652;19.016;2024-01-11T09:16:27;20.65;;;8.70;;
64682;SDS011;51107;47.652;19.016;2024-01-11T09:18:56;17.95;;;8.27;;
64682;SDS011;51107;47.652;19.016;2024-01-11T09:21:24;14.68;;;7.30;;
64682;SDS011;51107;47.652;19.016;2024-01-11T09:23:53;12.45;;;7.22;;
64682;SDS011;51107;47.652;19.016;2024-01-11T09:26:21;13.38;;;7.40;;
64682;SDS011;51107;47.652;19.016;2024-01-11T09:28:50;12.23;;;4.18;;
64682;SDS011;51107;47.652;19.016;2024-01-11T09:31:19;7.60;;;2.50;;
64682;SDS011;51107;47.652;19.016;2024-01-11T09:33:47;8.88;;;2.78;;
64682;SDS011;51107;47.652;19.016;2024-01-11T09:36:18;9.05;;;3.95;;
64682;SDS011;51107;47.652;19.016;2024-01-11T09:38:47;11.90;;;5.00;;
64682;SDS011;51107;47.652;19.016;2024-01-11T09:41:16;8.15;;;3.65;;
64682;SDS011;51107;47.652;19.016;2024-01-11T09:43:44;9.73;;;3.85;;
64682;SDS011;51107;47.652;19.016;2024-01-11T09:46:15;7.75;;;4.00;;
64682;SDS011;51107;47.652;19.016;2024-01-11T09:48:44;7.78;;;3.50;;
64682;SDS011;51107;47.652;19.016;2024-01-11T09:51:15;6.87;;;3.58;;
64682;SDS011;51107;47.652;19.016;2024-01-11T09:53:43;13.15;;;4.82;;
64682;SDS011;51107;47.652;19.016;2024-01-11T09:56:12;8.18;;;3.85;;
64682;SDS011;51107;47.652;19.016;2024-01-11T09:58:41;8.00;;;3.75;;
64682;SDS011;51107;47.652;19.016;2024-01-11T10:01:16;6.45;;;3.72;;
64682;SDS011;51107;47.652;19.016;2024-01-11T10:03:45;13.05;;;4.70;;
64682;SDS011;51107;47.652;19.016;2024-01-11T10:06:16;8.25;;;4.62;;
64682;SDS011;51107;47.652;19.016;2024-01-11T10:08:45;9.75;;;4.47;;
64682;SDS011;51107;47.652;19.016;2024-01-11T10:11:13;7.53;;;3.62;;
64682;SDS011;51107;47.652;19.016;2024-01-11T10:13:41;10.73;;;3.47;;
64682;SDS011;51107;47.652;19.016;2024-01-11T10:16:10;7.78;;;3.70;;
64682;SDS011;51107;47.652;19.016;2024-01-11T10:18:43;7.80;;;3.60;;
64682;SDS011;51107;47.652;19.016;2024-01-11T10:21:12;5.25;;;2.33;;
64682;SDS011;51107;47.652;19.016;2024-01-11T10:23:41;6.40;;;3.15;;
64682;SDS011;51107;47.652;19.016;2024-01-11T10:26:09;10.95;;;3.17;;
64682;SDS011;51107;47.652;19.016;2024-01-11T10:28:38;8.10;;;2.75;;
64682;SDS011;51107;47.652;19.016;2024-01-11T10:31:06;7.32;;;3.62;;
64682;SDS011;51107;47.652;19.016;2024-01-11T10:33:34;5.50;;;2.45;;
64682;SDS011;51107;47.652;19.016;2024-01-11T10:36:04;6.93;;;3.10;;
64682;SDS011;51107;47.652;19.016;2024-01-11T10:38:34;4.32;;;2.22;;
64682;SDS011;51107;47.652;19.016;2024-01-11T10:41:04;6.55;;;3.28;;
64682;SDS011;51107;47.652;19.016;2024-01-11T10:43:37;7.78;;;3.75;;
64682;SDS011;51107;47.652;19.016;2024-01-11T10:46:06;7.75;;;3.70;;
64682;SDS011;51107;47.652;19.016;2024-01-11T10:48:38;6.68;;;3.33;;
64682;SDS011;51107;47.652;19.016;2024-01-11T10:51:10;7.25;;;3.30;;
64682;SDS011;51107;47.652;19.016;2024-01-11T10:53:46;7.25;;;2.83;;
64682;SDS011;51107;47.652;19.016;2024-01-11T10:56:16;5.43;;;2.67;;
64682;SDS011;51107;47.652;19.016;2024-01-11T10:58:44;7.22;;;3.10;;
64682;SDS011;51107;47.652;19.016;2024-01-11T11:01:14;7.82;;;3.03;;
64682;SDS011;51107;47.652;19.016;2024-01-11T11:03:44;5.03;;;2.58;;
64682;SDS011;51107;47.652;19.016;2024-01-11T11:06:14;10.23;;;3.78;;
64682;SDS011;51107;47.652;19.016;2024-01-11T11:08:46;6.55;;;3.55;;
64682;SDS011;51107;47.652;19.016;2024-01-11T11:11:16;6.62;;;3.28;;
64682;SDS011;51107;47.652;19.016;2024-01-11T11:13:46;4.22;;;2.37;;
64682;SDS011;51107;47.652;19.016;2024-01-11T11:16:16;5.78;;;3.20;;
64682;SDS011;51107;47.652;19.016;2024-01-11T11:18:44;9.90;;;2.75;;
64682;SDS011;51107;47.652;19.016;2024-01-11T11:21:12;5.20;;;2.53;;
64682;SDS011;51107;47.652;19.016;2024-01-11T11:23:40;5.75;;;2.95;;
64682;SDS011;51107;47.652;19.016;2024-01-11T11:26:14;11.52;;;3.47;;
64682;SDS011;51107;47.652;19.016;2024-01-11T11:28:46;8.77;;;4.03;;
64682;SDS011;51107;47.652;19.016;2024-01-11T11:31:34;11.48;;;4.70;;
64682;SDS011;51107;47.652;19.016;2024-01-11T11:34:06;7.93;;;4.05;;
64682;SDS011;51107;47.652;19.016;2024-01-11T11:36:34;8.23;;;4.10;;
64682;SDS011;51107;47.652;19.016;2024-01-11T11:39:03;6.78;;;3.53;;
64682;SDS011;51107;47.652;19.016;2024-01-11T11:41:31;17.30;;;3.50;;
64682;SDS011;51107;47.652;19.016;2024-01-11T11:44:03;8.88;;;3.47;;
64682;SDS011;51107;47.652;19.016;2024-01-11T11:46:33;7.97;;;4.20;;
64682;SDS011;51107;47.652;19.016;2024-01-11T11:49:01;8.57;;;4.05;;
64682;SDS011;51107;47.652;19.016;2024-01-11T11:51:29;7.00;;;3.45;;
64682;SDS011;51107;47.652;19.016;2024-01-11T11:53:57;9.38;;;3.80;;
64682;SDS011;51107;47.652;19.016;2024-01-11T11:56:25;7.37;;;3.70;;
64682;SDS011;51107;47.652;19.016;2024-01-11T11:58:54;5.55;;;2.67;;
64682;SDS011;51107;47.652;19.016;2024-01-11T12:01:23;7.43;;;3.83;;
64682;SDS011;51107;47.652;19.016;2024-01-11T12:03:52;5.95;;;3.25;;
64682;SDS011;51107;47.652;19.016;2024-01-11T12:06:21;9.13;;;3.58;;
64682;SDS011;51107;47.652;19.016;2024-01-11T12:08:55;8.80;;;4.32;;
64682;SDS011;51107;47.652;19.016;2024-01-11T12:11:25;7.65;;;3.55;;
64682;SDS011;51107;47.652;19.016;2024-01-11T12:13:54;5.28;;;3.03;;
64682;SDS011;51107;47.652;19.016;2024-01-11T12:16:25;8.88;;;3.35;;
64682;SDS011;51107;47.652;19.016;2024-01-11T12:18:53;6.00;;;3.65;;
64682;SDS011;51107;47.652;19.016;2024-01-11T12:21:25;6.15;;;2.35;;
64682;SDS011;51107;47.652;19.016;2024-01-11T12:23:54;8.25;;;3.10;;
64682;SDS011;51107;47.652;19.016;2024-01-11T12:26:22;8.85;;;2.83;;
64682;SDS011;51107;47.652;19.016;2024-01-11T12:28:51;7.65;;;2.92;;
64682;SDS011;51107;47.652;19.016;2024-01-11T12:31:20;5.60;;;2.50;;
64682;SDS011;51107;47.652;19.016;2024-01-11T12:33:49;11.85;;;2.75;;
64682;SDS011;51107;47.652;19.016;2024-01-11T12:36:18;5.80;;;2.95;;
64682;SDS011;51107;47.652;19.016;2024-01-11T12:38:55;6.32;;;3.12;;
64682;SDS011;51107;47.652;19.016;2024-01-11T12:41:23;13.30;;;3.72;;
64682;SDS011;51107;47.652;19.016;2024-01-11T12:44:05;6.50;;;4.07;;
64682;SDS011;51107;47.652;19.016;2024-01-11T12:46:33;14.25;;;4.40;;
64682;SDS011;51107;47.652;19.016;2024-01-11T12:49:01;5.93;;;2.92;;
64682;SDS011;51107;47.652;19.016;2024-01-11T12:51:30;4.00;;;2.55;;
64682;SDS011;51107;47.652;19.016;2024-01-11T12:53:59;5.68;;;2.60;;
64682;SDS011;51107;47.652;19.016;2024-01-11T12:56:27;4.90;;;2.17;;
64682;SDS011;51107;47.652;19.016;2024-01-11T12:59:05;6.87;;;3.00;;
64682;SDS011;51107;47.652;19.016;2024-01-11T13:01:35;5.35;;;2.80;;
64682;SDS011;51107;47.652;19.016;2024-01-11T13:04:04;7.53;;;2.50;;
64682;SDS011;51107;47.652;19.016;2024-01-11T13:06:33;4.07;;;2.28;;
64682;SDS011;51107;47.652;19.016;2024-01-11T13:09:03;9.63;;;3.87;;
64682;SDS011;51107;47.652;19.016;2024-01-11T13:11:32;4.78;;;3.58;;
64682;SDS011;51107;47.652;19.016;2024-01-11T13:14:00;3.95;;;2.37;;
64682;SDS011;51107;47.652;19.016;2024-01-11T13:16:34;10.63;;;3.83;;
64682;SDS011;51107;47.652;19.016;2024-01-11T13:19:02;8.95;;;3.80;;
64682;SDS011;51107;47.652;19.016;2024-01-11T13:21:46;5.47;;;2.87;;
64682;SDS011;51107;47.652;19.016;2024-01-11T13:24:14;8.55;;;2.87;;
64682;SDS011;51107;47.652;19.016;2024-01-11T13:26:42;4.75;;;2.15;;
64682;SDS011;51107;47.652;19.016;2024-01-11T13:29:11;7.12;;;2.60;;
64682;SDS011;51107;47.652;19.016;2024-01-11T13:31:39;4.62;;;2.50;;
64682;SDS011;51107;47.652;19.016;2024-01-11T13:34:07;4.65;;;2.83;;
64682;SDS011;51107;47.652;19.016;2024-01-11T13:36:36;8.57;;;2.78;;
64682;SDS011;51107;47.652;19.016;2024-01-11T13:39:04;3.05;;;2.10;;
64682;SDS011;51107;47.652;19.016;2024-01-11T13:41:36;6.32;;;2.80;;
64682;SDS011;51107;47.652;19.016;2024-01-11T13:44:05;5.85;;;2.65;;
64682;SDS011;51107;47.652;19.016;2024-01-11T13:46:33;4.10;;;2.83;;
64682;SDS011;51107;47.652;19.016;2024-01-11T13:49:02;4.30;;;2.50;;
64682;SDS011;51107;47.652;19.016;2024-01-11T13:51:30;7.80;;;2.78;;
64682;SDS011;51107;47.652;19.016;2024-01-11T13:54:12;9.68;;;4.07;;
64682;SDS011;51107;47.652;19.016;2024-01-11T13:56:40;8.45;;;2.60;;
64682;SDS011;51107;47.652;19.016;2024-01-11T13:59:08;8.05;;;3.12;;
64682;SDS011;51107;47.652;19.016;2024-01-11T14:01:37;8.07;;;3.37;;
64682;SDS011;51107;47.652;19.016;2024-01-11T14:04:05;4.12;;;2.83;;
64682;SDS011;51107;47.652;19.016;2024-01-11T14:06:35;3.67;;;2.45;;
64682;SDS011;51107;47.652;19.016;2024-01-11T14:09:03;8.48;;;2.62;;
64682;SDS011;51107;47.652;19.016;2024-01-11T14:11:35;1.90;;;1.37;;
64682;SDS011;51107;47.652;19.016;2024-01-11T14:14:03;2.33;;;1.73;;
64682;SDS011;51107;47.652;19.016;2024-01-11T14:16:31;3.30;;;1.95;;
64682;SDS011;51107;47.652;19.016;2024-01-11T14:19:00;3.33;;;2.08;;
64682;SDS011;51107;47.652;19.016;2024-01-11T14:21:29;3.87;;;2.53;;
64682;SDS011;51107;47.652;19.016;2024-01-11T14:23:57;3.45;;;1.27;;
64682;SDS011;51107;47.652;19.016;2024-01-11T14:26:26;4.68;;;3.42;;
64682;SDS011;51107;47.652;19.016;2024-01-11T14:28:54;4.65;;;1.37;;
64682;SDS011;51107;47.652;19.016;2024-01-11T14:31:22;5.62;;;2.67;;
64682;SDS011;51107;47.652;19.016;2024-01-11T14:33:51;1.35;;;1.25;;
64682;SDS011;51107;47.652;19.016;2024-01-11T14:36:19;2.12;;;1.33;;
64682;SDS011;51107;47.652;19.016;2024-01-11T14:38:48;3.78;;;2.15;;
64682;SDS011;51107;47.652;19.016;2024-01-11T14:41:16;3.25;;;2.30;;
64682;SDS011;51107;47.652;19.016;2024-01-11T14:43:45;2.72;;;2.15;;
64682;SDS011;51107;47.652;19.016;2024-01-11T14:46:13;3.87;;;1.73;;